Terminal Aerodrome Forecast
Issued by NWS

Home | Current Version | Previous Version | Text Only | Print | Product List | Glossary On
Versions: 1 2 3 4 5 6 7 8 9 10 11 12 13 14 15
000
FTUS46 KSGX 222000 AAA
TAFSNA
TAF AMD
KSNA 222000Z 2220/2318 VRB03KT 5SM HZ SKC
     FM222200 25006KT P6SM SKC
     FM230900 VRB05KT P6SM SKC WS015/04030KT=

USA.gov is the U.S. government's official web portal to all federal, state and local government web resources and services.